sensor_id;sensor_type;location;lat;lon;timestamp;P1;durP1;ratioP1;P2;durP2;ratioP2
43650;SDS011;29247;50.944;5.382;2023-08-12T00:01:16;11.15;;;7.30;;
43650;SDS011;29247;50.944;5.382;2023-08-12T00:06:12;10.27;;;6.85;;
43650;SDS011;29247;50.944;5.382;2023-08-12T00:08:40;8.70;;;7.22;;
43650;SDS011;29247;50.944;5.382;2023-08-12T00:11:05;13.15;;;7.68;;
43650;SDS011;29247;50.944;5.382;2023-08-12T00:13:31;12.25;;;7.57;;
43650;SDS011;29247;50.944;5.382;2023-08-12T00:15:57;9.48;;;7.43;;
43650;SDS011;29247;50.944;5.382;2023-08-12T00:18:22;10.15;;;7.18;;
43650;SDS011;29247;50.944;5.382;2023-08-12T00:20:48;10.57;;;8.05;;
43650;SDS011;29247;50.944;5.382;2023-08-12T00:23:14;8.98;;;7.45;;
43650;SDS011;29247;50.944;5.382;2023-08-12T00:25:42;9.60;;;7.22;;
43650;SDS011;29247;50.944;5.382;2023-08-12T00:28:07;12.15;;;7.82;;
43650;SDS011;29247;50.944;5.382;2023-08-12T00:30:36;11.82;;;7.53;;
43650;SDS011;29247;50.944;5.382;2023-08-12T00:33:04;13.82;;;7.43;;
43650;SDS011;29247;50.944;5.382;2023-08-12T00:35:30;9.80;;;6.50;;
43650;SDS011;29247;50.944;5.382;2023-08-12T00:37:55;12.27;;;6.50;;
43650;SDS011;29247;50.944;5.382;2023-08-12T00:40:21;8.85;;;6.57;;
43650;SDS011;29247;50.944;5.382;2023-08-12T00:42:49;10.82;;;8.25;;
43650;SDS011;29247;50.944;5.382;2023-08-12T00:45:14;9.13;;;7.28;;
43650;SDS011;29247;50.944;5.382;2023-08-12T00:47:40;8.75;;;6.65;;
43650;SDS011;29247;50.944;5.382;2023-08-12T00:50:07;10.77;;;6.53;;
43650;SDS011;29247;50.944;5.382;2023-08-12T00:52:36;8.90;;;6.55;;
43650;SDS011;29247;50.944;5.382;2023-08-12T00:55:02;9.52;;;6.75;;
43650;SDS011;29247;50.944;5.382;2023-08-12T00:57:28;10.00;;;6.75;;
43650;SDS011;29247;50.944;5.382;2023-08-12T00:59:55;9.85;;;6.50;;
43650;SDS011;29247;50.944;5.382;2023-08-12T01:02:21;11.27;;;6.97;;
43650;SDS011;29247;50.944;5.382;2023-08-12T01:04:46;8.38;;;5.93;;
43650;SDS011;29247;50.944;5.382;2023-08-12T01:07:12;13.35;;;6.50;;
43650;SDS011;29247;50.944;5.382;2023-08-12T01:09:38;7.25;;;6.15;;
43650;SDS011;29247;50.944;5.382;2023-08-12T01:12:12;7.25;;;5.88;;
43650;SDS011;29247;50.944;5.382;2023-08-12T01:17:11;8.32;;;6.32;;
43650;SDS011;29247;50.944;5.382;2023-08-12T01:19:41;8.70;;;7.47;;
43650;SDS011;29247;50.944;5.382;2023-08-12T01:22:11;9.52;;;7.03;;
43650;SDS011;29247;50.944;5.382;2023-08-12T01:24:38;8.77;;;6.20;;
43650;SDS011;29247;50.944;5.382;2023-08-12T01:27:05;7.65;;;6.32;;
43650;SDS011;29247;50.944;5.382;2023-08-12T01:29:32;12.15;;;6.10;;
43650;SDS011;29247;50.944;5.382;2023-08-12T01:32:02;8.57;;;6.38;;
43650;SDS011;29247;50.944;5.382;2023-08-12T01:37:24;11.20;;;6.72;;
43650;SDS011;29247;50.944;5.382;2023-08-12T01:39:53;7.80;;;6.30;;
43650;SDS011;29247;50.944;5.382;2023-08-12T01:42:21;14.60;;;7.47;;
43650;SDS011;29247;50.944;5.382;2023-08-12T01:44:50;8.98;;;6.05;;
43650;SDS011;29247;50.944;5.382;2023-08-12T01:47:15;8.38;;;5.55;;
43650;SDS011;29247;50.944;5.382;2023-08-12T01:49:41;8.02;;;5.97;;
43650;SDS011;29247;50.944;5.382;2023-08-12T01:52:07;11.65;;;6.20;;
43650;SDS011;29247;50.944;5.382;2023-08-12T01:54:33;9.48;;;5.60;;
43650;SDS011;29247;50.944;5.382;2023-08-12T01:57:03;8.60;;;5.95;;
43650;SDS011;29247;50.944;5.382;2023-08-12T01:59:33;7.75;;;6.45;;
43650;SDS011;29247;50.944;5.382;2023-08-12T02:01:59;9.70;;;7.38;;
43650;SDS011;29247;50.944;5.382;2023-08-12T02:04:25;7.90;;;5.55;;
43650;SDS011;29247;50.944;5.382;2023-08-12T02:06:52;8.68;;;5.82;;
43650;SDS011;29247;50.944;5.382;2023-08-12T02:09:20;11.25;;;5.88;;
43650;SDS011;29247;50.944;5.382;2023-08-12T02:11:49;8.30;;;6.25;;
43650;SDS011;29247;50.944;5.382;2023-08-12T02:14:17;11.77;;;6.05;;
43650;SDS011;29247;50.944;5.382;2023-08-12T02:16:45;9.15;;;5.82;;
43650;SDS011;29247;50.944;5.382;2023-08-12T02:19:13;9.55;;;6.13;;
43650;SDS011;29247;50.944;5.382;2023-08-12T02:21:38;8.23;;;6.15;;
43650;SDS011;29247;50.944;5.382;2023-08-12T02:24:07;7.03;;;5.88;;
43650;SDS011;29247;50.944;5.382;2023-08-12T02:26:33;9.27;;;6.07;;
43650;SDS011;29247;50.944;5.382;2023-08-12T02:29:02;9.38;;;6.53;;
43650;SDS011;29247;50.944;5.382;2023-08-12T02:31:27;7.32;;;6.03;;
43650;SDS011;29247;50.944;5.382;2023-08-12T02:33:57;6.78;;;6.07;;
43650;SDS011;29247;50.944;5.382;2023-08-12T02:38:51;6.95;;;5.80;;
43650;SDS011;29247;50.944;5.382;2023-08-12T02:41:17;12.30;;;6.00;;
43650;SDS011;29247;50.944;5.382;2023-08-12T02:43:43;7.95;;;6.25;;
43650;SDS011;29247;50.944;5.382;2023-08-12T02:46:08;9.15;;;5.55;;
43650;SDS011;29247;50.944;5.382;2023-08-12T02:48:35;6.32;;;5.72;;
43650;SDS011;29247;50.944;5.382;2023-08-12T02:51:01;7.45;;;5.93;;
43650;SDS011;29247;50.944;5.382;2023-08-12T02:53:27;8.50;;;5.55;;
43650;SDS011;29247;50.944;5.382;2023-08-12T02:55:52;7.68;;;6.50;;
43650;SDS011;29247;50.944;5.382;2023-08-12T02:58:18;8.32;;;5.43;;
43650;SDS011;29247;50.944;5.382;2023-08-12T03:00:44;9.93;;;6.10;;
43650;SDS011;29247;50.944;5.382;2023-08-12T03:03:09;7.68;;;5.57;;
43650;SDS011;29247;50.944;5.382;2023-08-12T03:05:35;9.32;;;6.20;;
43650;SDS011;29247;50.944;5.382;2023-08-12T03:08:01;6.75;;;6.05;;
43650;SDS011;29247;50.944;5.382;2023-08-12T03:10:28;7.60;;;5.22;;
43650;SDS011;29247;50.944;5.382;2023-08-12T03:12:54;9.48;;;7.20;;
43650;SDS011;29247;50.944;5.382;2023-08-12T03:15:20;9.68;;;6.78;;
43650;SDS011;29247;50.944;5.382;2023-08-12T03:17:46;12.23;;;7.93;;
43650;SDS011;29247;50.944;5.382;2023-08-12T03:20:14;12.02;;;7.13;;
43650;SDS011;29247;50.944;5.382;2023-08-12T03:22:42;8.77;;;6.72;;
43650;SDS011;29247;50.944;5.382;2023-08-12T03:25:08;9.98;;;6.88;;
43650;SDS011;29247;50.944;5.382;2023-08-12T03:27:34;12.90;;;7.13;;
43650;SDS011;29247;50.944;5.382;2023-08-12T03:30:00;8.13;;;7.00;;
43650;SDS011;29247;50.944;5.382;2023-08-12T03:32:26;10.18;;;7.68;;
43650;SDS011;29247;50.944;5.382;2023-08-12T03:34:52;11.95;;;7.60;;
43650;SDS011;29247;50.944;5.382;2023-08-12T03:37:18;12.32;;;7.75;;
43650;SDS011;29247;50.944;5.382;2023-08-12T03:39:44;13.20;;;7.93;;
43650;SDS011;29247;50.944;5.382;2023-08-12T03:42:09;11.15;;;8.13;;
43650;SDS011;29247;50.944;5.382;2023-08-12T03:44:35;9.30;;;8.23;;
43650;SDS011;29247;50.944;5.382;2023-08-12T03:47:01;13.30;;;8.93;;
43650;SDS011;29247;50.944;5.382;2023-08-12T03:49:26;12.90;;;8.23;;
43650;SDS011;29247;50.944;5.382;2023-08-12T03:51:52;10.77;;;7.82;;
43650;SDS011;29247;50.944;5.382;2023-08-12T03:54:18;11.77;;;8.52;;
43650;SDS011;29247;50.944;5.382;2023-08-12T03:56:43;14.88;;;8.93;;
43650;SDS011;29247;50.944;5.382;2023-08-12T03:59:10;13.20;;;9.20;;
43650;SDS011;29247;50.944;5.382;2023-08-12T04:01:37;11.07;;;8.60;;
43650;SDS011;29247;50.944;5.382;2023-08-12T04:04:03;15.13;;;8.68;;
43650;SDS011;29247;50.944;5.382;2023-08-12T04:06:29;13.93;;;9.30;;
43650;SDS011;29247;50.944;5.382;2023-08-12T04:08:55;10.65;;;8.90;;
43650;SDS011;29247;50.944;5.382;2023-08-12T04:11:20;12.02;;;8.60;;
43650;SDS011;29247;50.944;5.382;2023-08-12T04:13:51;13.70;;;8.48;;
43650;SDS011;29247;50.944;5.382;2023-08-12T04:16:16;12.70;;;8.55;;
43650;SDS011;29247;50.944;5.382;2023-08-12T04:18:42;12.55;;;8.68;;
43650;SDS011;29247;50.944;5.382;2023-08-12T04:21:10;11.38;;;8.23;;
43650;SDS011;29247;50.944;5.382;2023-08-12T04:23:36;18.48;;;10.15;;
43650;SDS011;29247;50.944;5.382;2023-08-12T04:26:01;13.55;;;8.98;;
43650;SDS011;29247;50.944;5.382;2023-08-12T04:28:27;17.38;;;9.60;;
43650;SDS011;29247;50.944;5.382;2023-08-12T04:30:55;13.20;;;9.20;;
43650;SDS011;29247;50.944;5.382;2023-08-12T04:33:21;16.63;;;9.55;;
43650;SDS011;29247;50.944;5.382;2023-08-12T04:35:50;12.52;;;9.20;;
43650;SDS011;29247;50.944;5.382;2023-08-12T04:38:22;13.05;;;9.27;;
43650;SDS011;29247;50.944;5.382;2023-08-12T04:40:48;17.27;;;9.45;;
43650;SDS011;29247;50.944;5.382;2023-08-12T04:43:14;13.02;;;8.70;;
43650;SDS011;29247;50.944;5.382;2023-08-12T04:45:39;11.68;;;9.35;;
43650;SDS011;29247;50.944;5.382;2023-08-12T04:48:05;11.88;;;8.55;;
43650;SDS011;29247;50.944;5.382;2023-08-12T04:50:33;17.55;;;8.75;;
43650;SDS011;29247;50.944;5.382;2023-08-12T04:52:59;11.93;;;8.55;;
43650;SDS011;29247;50.944;5.382;2023-08-12T04:55:25;11.23;;;8.27;;
43650;SDS011;29247;50.944;5.382;2023-08-12T04:57:51;12.40;;;7.65;;
43650;SDS011;29247;50.944;5.382;2023-08-12T05:00:18;11.77;;;8.75;;
43650;SDS011;29247;50.944;5.382;2023-08-12T05:02:44;13.23;;;7.63;;
43650;SDS011;29247;50.944;5.382;2023-08-12T05:05:09;11.05;;;7.28;;
43650;SDS011;29247;50.944;5.382;2023-08-12T05:07:35;8.70;;;5.90;;
43650;SDS011;29247;50.944;5.382;2023-08-12T05:10:01;10.30;;;6.65;;
43650;SDS011;29247;50.944;5.382;2023-08-12T05:12:27;11.82;;;6.50;;
43650;SDS011;29247;50.944;5.382;2023-08-12T05:14:57;8.90;;;6.20;;
43650;SDS011;29247;50.944;5.382;2023-08-12T05:17:23;12.80;;;5.63;;
43650;SDS011;29247;50.944;5.382;2023-08-12T05:19:49;8.93;;;5.93;;
43650;SDS011;29247;50.944;5.382;2023-08-12T05:22:17;6.20;;;5.25;;
43650;SDS011;29247;50.944;5.382;2023-08-12T05:24:45;7.85;;;5.28;;
43650;SDS011;29247;50.944;5.382;2023-08-12T05:27:13;7.28;;;5.05;;
43650;SDS011;29247;50.944;5.382;2023-08-12T05:29:38;6.72;;;4.63;;
43650;SDS011;29247;50.944;5.382;2023-08-12T05:32:04;7.63;;;4.57;;
43650;SDS011;29247;50.944;5.382;2023-08-12T05:34:30;6.60;;;4.40;;
43650;SDS011;29247;50.944;5.382;2023-08-12T05:36:55;8.23;;;4.40;;
43650;SDS011;29247;50.944;5.382;2023-08-12T05:39:26;8.88;;;4.45;;
43650;SDS011;29247;50.944;5.382;2023-08-12T05:41:51;6.35;;;4.15;;
43650;SDS011;29247;50.944;5.382;2023-08-12T05:44:17;7.85;;;4.50;;
43650;SDS011;29247;50.944;5.382;2023-08-12T05:46:43;4.72;;;4.25;;
43650;SDS011;29247;50.944;5.382;2023-08-12T05:49:08;6.28;;;4.25;;
43650;SDS011;29247;50.944;5.382;2023-08-12T05:51:34;4.35;;;3.95;;
43650;SDS011;29247;50.944;5.382;2023-08-12T05:54:03;3.97;;;3.58;;
43650;SDS011;29247;50.944;5.382;2023-08-12T05:56:31;4.45;;;3.13;;
43650;SDS011;29247;50.944;5.382;2023-08-12T05:58:57;5.43;;;3.90;;
43650;SDS011;29247;50.944;5.382;2023-08-12T06:01:24;5.10;;;3.72;;
43650;SDS011;29247;50.944;5.382;2023-08-12T06:03:50;3.80;;;3.40;;
43650;SDS011;29247;50.944;5.382;2023-08-12T06:06:16;3.75;;;3.17;;
43650;SDS011;29247;50.944;5.382;2023-08-12T06:08:44;5.20;;;2.95;;
43650;SDS011;29247;50.944;5.382;2023-08-12T06:11:09;3.92;;;3.45;;
43650;SDS011;29247;50.944;5.382;2023-08-12T06:13:35;3.67;;;2.75;;
43650;SDS011;29247;50.944;5.382;2023-08-12T06:16:00;3.95;;;2.80;;
43650;SDS011;29247;50.944;5.382;2023-08-12T06:18:26;4.15;;;2.80;;
43650;SDS011;29247;50.944;5.382;2023-08-12T06:20:52;3.30;;;2.78;;
43650;SDS011;29247;50.944;5.382;2023-08-12T06:23:17;3.20;;;2.42;;
43650;SDS011;29247;50.944;5.382;2023-08-12T06:25:45;5.07;;;2.50;;
43650;SDS011;29247;50.944;5.382;2023-08-12T06:28:14;3.00;;;2.53;;
43650;SDS011;29247;50.944;5.382;2023-08-12T06:33:09;7.03;;;2.83;;
43650;SDS011;29247;50.944;5.382;2023-08-12T06:35:35;5.25;;;2.25;;
43650;SDS011;29247;50.944;5.382;2023-08-12T06:38:03;2.70;;;2.08;;
43650;SDS011;29247;50.944;5.382;2023-08-12T06:40:29;5.60;;;2.22;;
43650;SDS011;29247;50.944;5.382;2023-08-12T06:42:55;4.38;;;2.30;;
43650;SDS011;29247;50.944;5.382;2023-08-12T06:45:21;2.22;;;1.60;;
43650;SDS011;29247;50.944;5.382;2023-08-12T06:47:49;4.40;;;2.10;;
43650;SDS011;29247;50.944;5.382;2023-08-12T06:50:15;2.17;;;1.70;;
43650;SDS011;29247;50.944;5.382;2023-08-12T06:52:41;5.50;;;1.90;;
43650;SDS011;29247;50.944;5.382;2023-08-12T06:55:06;2.97;;;2.45;;
43650;SDS011;29247;50.944;5.382;2023-08-12T06:57:37;3.67;;;1.65;;
43650;SDS011;29247;50.944;5.382;2023-08-12T07:00:03;4.25;;;1.80;;
43650;SDS011;29247;50.944;5.382;2023-08-12T07:02:30;1.85;;;1.67;;
43650;SDS011;29247;50.944;5.382;2023-08-12T07:04:56;2.85;;;1.60;;
43650;SDS011;29247;50.944;5.382;2023-08-12T07:07:21;2.35;;;1.50;;
43650;SDS011;29247;50.944;5.382;2023-08-12T07:09:47;1.80;;;1.48;;
43650;SDS011;29247;50.944;5.382;2023-08-12T07:12:13;2.17;;;1.50;;
43650;SDS011;29247;50.944;5.382;2023-08-12T07:14:41;1.67;;;1.40;;
43650;SDS011;29247;50.944;5.382;2023-08-12T07:17:07;1.40;;;1.30;;
43650;SDS011;29247;50.944;5.382;2023-08-12T07:19:32;1.40;;;1.27;;
43650;SDS011;29247;50.944;5.382;2023-08-12T07:21:58;2.42;;;1.80;;
43650;SDS011;29247;50.944;5.382;2023-08-12T07:24:23;1.83;;;1.13;;
43650;SDS011;29247;50.944;5.382;2023-08-12T07:26:49;1.63;;;1.30;;
43650;SDS011;29247;50.944;5.382;2023-08-12T07:29:17;2.25;;;1.20;;
43650;SDS011;29247;50.944;5.382;2023-08-12T07:31:43;2.50;;;1.30;;
43650;SDS011;29247;50.944;5.382;2023-08-12T07:34:09;1.20;;;1.10;;
43650;SDS011;29247;50.944;5.382;2023-08-12T07:36:38;2.17;;;0.98;;
43650;SDS011;29247;50.944;5.382;2023-08-12T07:39:06;1.20;;;1.10;;
43650;SDS011;29247;50.944;5.382;2023-08-12T07:41:32;4.53;;;1.17;;
43650;SDS011;29247;50.944;5.382;2023-08-12T07:43:58;3.55;;;1.00;;
43650;SDS011;29247;50.944;5.382;2023-08-12T07:46:24;0.75;;;0.75;;
43650;SDS011;29247;50.944;5.382;2023-08-12T07:48:49;0.93;;;0.80;;
43650;SDS011;29247;50.944;5.382;2023-08-12T07:51:15;1.85;;;0.82;;
43650;SDS011;29247;50.944;5.382;2023-08-12T07:53:43;0.88;;;0.80;;
43650;SDS011;29247;50.944;5.382;2023-08-12T07:56:08;1.08;;;0.98;;
43650;SDS011;29247;50.944;5.382;2023-08-12T07:58:34;1.45;;;0.80;;
43650;SDS011;29247;50.944;5.382;2023-08-12T08:01:00;1.15;;;0.90;;
43650;SDS011;29247;50.944;5.382;2023-08-12T08:03:25;0.93;;;0.88;;
43650;SDS011;29247;50.944;5.382;2023-08-12T08:05:51;0.88;;;0.75;;
43650;SDS011;29247;50.944;5.382;2023-08-12T08:08:17;0.70;;;0.70;;
43650;SDS011;29247;50.944;5.382;2023-08-12T08:10:45;0.70;;;0.70;;
43650;SDS011;29247;50.944;5.382;2023-08-12T08:13:11;2.08;;;0.60;;
43650;SDS011;29247;50.944;5.382;2023-08-12T08:15:36;0.73;;;0.60;;
43650;SDS011;29247;50.944;5.382;2023-08-12T08:18:02;3.40;;;0.65;;
43650;SDS011;29247;50.944;5.382;2023-08-12T08:20:29;0.55;;;0.52;;
43650;SDS011;29247;50.944;5.382;2023-08-12T08:22:57;1.58;;;0.50;;
43650;SDS011;29247;50.944;5.382;2023-08-12T08:25:26;0.60;;;0.60;;
43650;SDS011;29247;50.944;5.382;2023-08-12T08:27:51;0.60;;;0.60;;
43650;SDS011;29247;50.944;5.382;2023-08-12T08:30:18;0.40;;;0.40;;
43650;SDS011;29247;50.944;5.382;2023-08-12T08:32:43;1.83;;;0.60;;
43650;SDS011;29247;50.944;5.382;2023-08-12T08:35:11;0.40;;;0.40;;
43650;SDS011;29247;50.944;5.382;2023-08-12T08:37:37;1.27;;;0.60;;
43650;SDS011;29247;50.944;5.382;2023-08-12T08:40:02;0.52;;;0.50;;
43650;SDS011;29247;50.944;5.382;2023-08-12T08:42:28;0.50;;;0.50;;
43650;SDS011;29247;50.944;5.382;2023-08-12T08:44:58;0.60;;;0.60;;
43650;SDS011;29247;50.944;5.382;2023-08-12T08:47:29;0.85;;;0.50;;
43650;SDS011;29247;50.944;5.382;2023-08-12T08:49:55;0.55;;;0.50;;
43650;SDS011;29247;50.944;5.382;2023-08-12T08:52:27;0.50;;;0.50;;
43650;SDS011;29247;50.944;5.382;2023-08-12T08:54:53;0.88;;;0.50;;
43650;SDS011;29247;50.944;5.382;2023-08-12T08:57:19;0.57;;;0.57;;
43650;SDS011;29247;50.944;5.382;2023-08-12T08:59:47;0.57;;;0.47;;
43650;SDS011;29247;50.944;5.382;2023-08-12T09:02:18;0.40;;;0.40;;
43650;SDS011;29247;50.944;5.382;2023-08-12T09:04:44;0.47;;;0.43;;
43650;SDS011;29247;50.944;5.382;2023-08-12T09:07:13;1.47;;;1.37;;
43650;SDS011;29247;50.944;5.382;2023-08-12T09:09:42;0.40;;;0.40;;
43650;SDS011;29247;50.944;5.382;2023-08-12T09:12:14;1.40;;;0.30;;
43650;SDS011;29247;50.944;5.382;2023-08-12T09:14:41;0.40;;;0.40;;
43650;SDS011;29247;50.944;5.382;2023-08-12T09:17:08;0.40;;;0.40;;
43650;SDS011;29247;50.944;5.382;2023-08-12T09:19:37;0.60;;;0.60;;
43650;SDS011;29247;50.944;5.382;2023-08-12T09:22:03;1.02;;;0.40;;
43650;SDS011;29247;50.944;5.382;2023-08-12T09:24:32;0.50;;;0.50;;
43650;SDS011;29247;50.944;5.382;2023-08-12T09:26:57;0.40;;;0.40;;
43650;SDS011;29247;50.944;5.382;2023-08-12T09:29:23;0.65;;;0.50;;
43650;SDS011;29247;50.944;5.382;2023-08-12T09:32:11;1.60;;;0.40;;
43650;SDS011;29247;50.944;5.382;2023-08-12T09:34:49;0.50;;;0.50;;
43650;SDS011;29247;50.944;5.382;2023-08-12T09:37:20;1.33;;;0.50;;
43650;SDS011;29247;50.944;5.382;2023-08-12T09:39:46;0.63;;;0.40;;
43650;SDS011;29247;50.944;5.382;2023-08-12T09:42:13;0.73;;;0.50;;
43650;SDS011;29247;50.944;5.382;2023-08-12T09:44:40;0.77;;;0.60;;
43650;SDS011;29247;50.944;5.382;2023-08-12T09:47:08;0.52;;;0.50;;
43650;SDS011;29247;50.944;5.382;2023-08-12T09:49:37;1.45;;;0.70;;
43650;SDS011;29247;50.944;5.382;2023-08-12T09:52:04;1.13;;;0.55;;
43650;SDS011;29247;50.944;5.382;2023-08-12T09:54:33;0.40;;;0.40;;
43650;SDS011;29247;50.944;5.382;2023-08-12T09:57:02;0.98;;;0.55;;
43650;SDS011;29247;50.944;5.382;2023-08-12T09:59:33;0.75;;;0.73;;
43650;SDS011;29247;50.944;5.382;2023-08-12T10:02:03;0.98;;;0.70;;
43650;SDS011;29247;50.944;5.382;2023-08-12T10:04:37;0.63;;;0.63;;
43650;SDS011;29247;50.944;5.382;2023-08-12T10:07:10;0.85;;;0.60;;
43650;SDS011;29247;50.944;5.382;2023-08-12T10:09:38;2.47;;;0.60;;
43650;SDS011;29247;50.944;5.382;2023-08-12T10:12:05;0.63;;;0.52;;
43650;SDS011;29247;50.944;5.382;2023-08-12T10:14:35;0.60;;;0.60;;
43650;SDS011;29247;50.944;5.382;2023-08-12T10:17:03;0.60;;;0.60;;
43650;SDS011;29247;50.944;5.382;2023-08-12T10:19:29;0.80;;;0.80;;
43650;SDS011;29247;50.944;5.382;2023-08-12T10:21:56;0.70;;;0.70;;
43650;SDS011;29247;50.944;5.382;2023-08-12T10:24:27;0.47;;;0.47;;
43650;SDS011;29247;50.944;5.382;2023-08-12T10:26:56;0.50;;;0.50;;
43650;SDS011;29247;50.944;5.382;2023-08-12T10:29:24;0.63;;;0.63;;
43650;SDS011;29247;50.944;5.382;2023-08-12T10:31:50;0.52;;;0.52;;
43650;SDS011;29247;50.944;5.382;2023-08-12T10:34:22;0.50;;;0.50;;
43650;SDS011;29247;50.944;5.382;2023-08-12T10:36:56;0.85;;;0.60;;
43650;SDS011;29247;50.944;5.382;2023-08-12T10:39:28;0.90;;;0.60;;
43650;SDS011;29247;50.944;5.382;2023-08-12T10:41:56;0.70;;;0.70;;
43650;SDS011;29247;50.944;5.382;2023-08-12T10:44:26;1.80;;;0.70;;
43650;SDS011;29247;50.944;5.382;2023-08-12T10:47:05;0.70;;;0.70;;
43650;SDS011;29247;50.944;5.382;2023-08-12T10:49:38;0.77;;;0.77;;
43650;SDS011;29247;50.944;5.382;2023-08-12T10:52:04;0.80;;;0.80;;
43650;SDS011;29247;50.944;5.382;2023-08-12T10:54:30;2.63;;;0.80;;
43650;SDS011;29247;50.944;5.382;2023-08-12T11:05:00;1.05;;;0.90;;
43650;SDS011;29247;50.944;5.382;2023-08-12T11:10:04;1.17;;;0.88;;
43650;SDS011;29247;50.944;5.382;2023-08-12T11:12:34;1.02;;;0.93;;
43650;SDS011;29247;50.944;5.382;2023-08-12T11:15:01;1.30;;;1.20;;
43650;SDS011;29247;50.944;5.382;2023-08-12T11:17:38;2.28;;;1.10;;
43650;SDS011;29247;50.944;5.382;2023-08-12T11:20:10;1.25;;;1.10;;
43650;SDS011;29247;50.944;5.382;2023-08-12T11:22:37;1.90;;;1.23;;
43650;SDS011;29247;50.944;5.382;2023-08-12T11:25:08;1.20;;;1.10;;
43650;SDS011;29247;50.944;5.382;2023-08-12T11:30:08;3.38;;;1.40;;
43650;SDS011;29247;50.944;5.382;2023-08-12T11:32:37;3.05;;;1.55;;
43650;SDS011;29247;50.944;5.382;2023-08-12T11:35:04;2.67;;;1.13;;
43650;SDS011;29247;50.944;5.382;2023-08-12T11:37:35;3.13;;;1.10;;
43650;SDS011;29247;50.944;5.382;2023-08-12T11:40:04;2.88;;;1.40;;
43650;SDS011;29247;50.944;5.382;2023-08-12T11:42:31;1.45;;;1.35;;
43650;SDS011;29247;50.944;5.382;2023-08-12T11:44:57;2.40;;;1.30;;
43650;SDS011;29247;50.944;5.382;2023-08-12T11:47:23;1.92;;;1.33;;
43650;SDS011;29247;50.944;5.382;2023-08-12T11:49:48;1.67;;;1.17;;
43650;SDS011;29247;50.944;5.382;2023-08-12T11:52:14;3.30;;;1.42;;
43650;SDS011;29247;50.944;5.382;2023-08-12T11:54:43;1.75;;;1.42;;
43650;SDS011;29247;50.944;5.382;2023-08-12T11:57:08;2.95;;;1.52;;
43650;SDS011;29247;50.944;5.382;2023-08-12T11:59:35;2.08;;;1.45;;
43650;SDS011;29247;50.944;5.382;2023-08-12T12:02:01;1.88;;;1.10;;
43650;SDS011;29247;50.944;5.382;2023-08-12T12:04:27;3.28;;;1.02;;
43650;SDS011;29247;50.944;5.382;2023-08-12T12:06:57;1.77;;;1.20;;
43650;SDS011;29247;50.944;5.382;2023-08-12T12:09:25;2.70;;;1.00;;
43650;SDS011;29247;50.944;5.382;2023-08-12T12:11:53;2.13;;;0.98;;
43650;SDS011;29247;50.944;5.382;2023-08-12T12:14:21;1.95;;;1.00;;
43650;SDS011;29247;50.944;5.382;2023-08-12T12:16:47;1.65;;;0.88;;
43650;SDS011;29247;50.944;5.382;2023-08-12T12:19:17;2.70;;;0.98;;
43650;SDS011;29247;50.944;5.382;2023-08-12T12:21:45;2.45;;;1.00;;
43650;SDS011;29247;50.944;5.382;2023-08-12T12:24:14;1.85;;;0.80;;
43650;SDS011;29247;50.944;5.382;2023-08-12T12:26:41;1.42;;;0.90;;
43650;SDS011;29247;50.944;5.382;2023-08-12T12:29:07;2.67;;;1.00;;
43650;SDS011;29247;50.944;5.382;2023-08-12T12:31:34;3.78;;;0.77;;
43650;SDS011;29247;50.944;5.382;2023-08-12T12:34:01;2.22;;;0.98;;
43650;SDS011;29247;50.944;5.382;2023-08-12T12:36:31;2.67;;;0.90;;
43650;SDS011;29247;50.944;5.382;2023-08-12T12:38:59;2.72;;;0.90;;
43650;SDS011;29247;50.944;5.382;2023-08-12T12:41:24;1.95;;;0.80;;
43650;SDS011;29247;50.944;5.382;2023-08-12T12:43:50;3.53;;;1.20;;
43650;SDS011;29247;50.944;5.382;2023-08-12T12:46:18;3.42;;;1.10;;
43650;SDS011;29247;50.944;5.382;2023-08-12T12:48:44;3.63;;;1.05;;
43650;SDS011;29247;50.944;5.382;2023-08-12T12:51:12;3.05;;;1.00;;
43650;SDS011;29247;50.944;5.382;2023-08-12T12:53:38;1.70;;;0.77;;
43650;SDS011;29247;50.944;5.382;2023-08-12T12:56:05;3.72;;;0.80;;
43650;SDS011;29247;50.944;5.382;2023-08-12T12:58:34;2.35;;;0.90;;
43650;SDS011;29247;50.944;5.382;2023-08-12T13:01:01;2.30;;;0.80;;
43650;SDS011;29247;50.944;5.382;2023-08-12T13:03:27;2.88;;;0.90;;
43650;SDS011;29247;50.944;5.382;2023-08-12T13:05:54;8.75;;;1.13;;
43650;SDS011;29247;50.944;5.382;2023-08-12T13:08:20;2.55;;;1.02;;
43650;SDS011;29247;50.944;5.382;2023-08-12T13:10:46;5.32;;;1.27;;
43650;SDS011;29247;50.944;5.382;2023-08-12T13:13:14;3.20;;;1.10;;
43650;SDS011;29247;50.944;5.382;2023-08-12T13:15:45;5.05;;;1.05;;
43650;SDS011;29247;50.944;5.382;2023-08-12T13:18:11;2.83;;;0.98;;
43650;SDS011;29247;50.944;5.382;2023-08-12T13:20:37;2.30;;;0.98;;
43650;SDS011;29247;50.944;5.382;2023-08-12T13:23:03;1.83;;;0.90;;
43650;SDS011;29247;50.944;5.382;2023-08-12T13:25:30;3.53;;;1.10;;
43650;SDS011;29247;50.944;5.382;2023-08-12T13:27:58;4.32;;;1.17;;
43650;SDS011;29247;50.944;5.382;2023-08-12T13:30:30;3.15;;;0.90;;
43650;SDS011;29247;50.944;5.382;2023-08-12T13:32:56;3.17;;;1.33;;
43650;SDS011;29247;50.944;5.382;2023-08-12T13:35:24;5.28;;;1.25;;
43650;SDS011;29247;50.944;5.382;2023-08-12T13:37:55;2.17;;;0.95;;
43650;SDS011;29247;50.944;5.382;2023-08-12T13:40:20;2.22;;;0.88;;
43650;SDS011;29247;50.944;5.382;2023-08-12T13:42:46;2.78;;;1.05;;
43650;SDS011;29247;50.944;5.382;2023-08-12T13:45:12;3.40;;;1.08;;
43650;SDS011;29247;50.944;5.382;2023-08-12T13:47:38;3.65;;;0.90;;
43650;SDS011;29247;50.944;5.382;2023-08-12T13:50:04;2.40;;;1.08;;
43650;SDS011;29247;50.944;5.382;2023-08-12T13:52:32;2.83;;;1.10;;
43650;SDS011;29247;50.944;5.382;2023-08-12T13:54:58;2.95;;;1.02;;
43650;SDS011;29247;50.944;5.382;2023-08-12T13:57:24;4.70;;;1.00;;
43650;SDS011;29247;50.944;5.382;2023-08-12T13:59:52;1.83;;;1.02;;
43650;SDS011;29247;50.944;5.382;2023-08-12T14:02:17;2.55;;;0.77;;
43650;SDS011;29247;50.944;5.382;2023-08-12T14:04:43;1.75;;;1.00;;
43650;SDS011;29247;50.944;5.382;2023-08-12T14:07:09;4.82;;;0.90;;
43650;SDS011;29247;50.944;5.382;2023-08-12T14:09:34;1.85;;;0.98;;
43650;SDS011;29247;50.944;5.382;2023-08-12T14:12:00;1.75;;;0.90;;
43650;SDS011;29247;50.944;5.382;2023-08-12T14:14:26;1.75;;;0.88;;
43650;SDS011;29247;50.944;5.382;2023-08-12T14:16:54;4.55;;;0.80;;
43650;SDS011;29247;50.944;5.382;2023-08-12T14:19:20;1.73;;;0.65;;
43650;SDS011;29247;50.944;5.382;2023-08-12T14:21:46;3.35;;;0.93;;
43650;SDS011;29247;50.944;5.382;2023-08-12T14:24:11;3.47;;;0.85;;
43650;SDS011;29247;50.944;5.382;2023-08-12T14:26:38;1.65;;;0.88;;
43650;SDS011;29247;50.944;5.382;2023-08-12T14:29:04;2.33;;;0.90;;
43650;SDS011;29247;50.944;5.382;2023-08-12T14:31:33;2.85;;;0.93;;
43650;SDS011;29247;50.944;5.382;2023-08-12T14:33:59;1.75;;;1.00;;
43650;SDS011;29247;50.944;5.382;2023-08-12T14:36:25;4.57;;;1.20;;
43650;SDS011;29247;50.944;5.382;2023-08-12T14:38:50;2.83;;;1.30;;
43650;SDS011;29247;50.944;5.382;2023-08-12T14:41:16;2.40;;;1.10;;
43650;SDS011;29247;50.944;5.382;2023-08-12T14:43:44;3.47;;;1.10;;
43650;SDS011;29247;50.944;5.382;2023-08-12T14:46:10;3.10;;;1.15;;
43650;SDS011;29247;50.944;5.382;2023-08-12T14:48:35;1.23;;;0.90;;
43650;SDS011;29247;50.944;5.382;2023-08-12T14:51:01;2.35;;;1.10;;
43650;SDS011;29247;50.944;5.382;2023-08-12T14:53:27;3.25;;;1.15;;
43650;SDS011;29247;50.944;5.382;2023-08-12T14:55:53;4.18;;;1.45;;
43650;SDS011;29247;50.944;5.382;2023-08-12T14:58:23;3.25;;;1.48;;
43650;SDS011;29247;50.944;5.382;2023-08-12T15:00:49;3.65;;;1.30;;
43650;SDS011;29247;50.944;5.382;2023-08-12T15:03:14;5.22;;;1.50;;
43650;SDS011;29247;50.944;5.382;2023-08-12T15:32:25;3.80;;;1.00;;
43650;SDS011;29247;50.944;5.382;2023-08-12T15:34:51;3.50;;;1.08;;
43650;SDS011;29247;50.944;5.382;2023-08-12T15:37:16;1.67;;;1.10;;